sensor_id;sensor_type;location;lat;lon;timestamp;P1;durP1;ratioP1;P2;durP2;ratioP2
45940;SDS011;31858;46.008;8.978;2023-11-19T00:06:39;1.80;;;1.30;;
45940;SDS011;31858;46.008;8.978;2023-11-19T00:16:42;1.10;;;1.05;;
45940;SDS011;31858;46.008;8.978;2023-11-19T00:26:44;0.80;;;0.70;;
45940;SDS011;31858;46.008;8.978;2023-11-19T00:36:47;4.28;;;0.63;;
45940;SDS011;31858;46.008;8.978;2023-11-19T00:46:49;1.00;;;0.90;;
45940;SDS011;31858;46.008;8.978;2023-11-19T00:56:52;1.30;;;1.10;;
45940;SDS011;31858;46.008;8.978;2023-11-19T01:06:53;0.95;;;0.85;;
45940;SDS011;31858;46.008;8.978;2023-11-19T01:16:57;1.73;;;1.45;;
45940;SDS011;31858;46.008;8.978;2023-11-19T01:26:59;1.02;;;0.80;;
45940;SDS011;31858;46.008;8.978;2023-11-19T01:37:02;0.95;;;0.90;;
45940;SDS011;31858;46.008;8.978;2023-11-19T01:47:04;0.80;;;0.63;;
45940;SDS011;31858;46.008;8.978;2023-11-19T01:57:08;1.65;;;1.17;;
45940;SDS011;31858;46.008;8.978;2023-11-19T02:07:10;1.05;;;0.80;;
45940;SDS011;31858;46.008;8.978;2023-11-19T02:17:26;1.92;;;0.82;;
45940;SDS011;31858;46.008;8.978;2023-11-19T02:27:29;0.75;;;0.73;;
45940;SDS011;31858;46.008;8.978;2023-11-19T02:37:34;1.10;;;0.80;;
45940;SDS011;31858;46.008;8.978;2023-11-19T02:47:35;0.90;;;0.90;;
45940;SDS011;31858;46.008;8.978;2023-11-19T02:57:38;1.30;;;1.00;;
45940;SDS011;31858;46.008;8.978;2023-11-19T03:07:46;0.57;;;0.57;;
45940;SDS011;31858;46.008;8.978;2023-11-19T03:17:49;0.63;;;0.50;;
45940;SDS011;31858;46.008;8.978;2023-11-19T03:27:51;0.70;;;0.70;;
45940;SDS011;31858;46.008;8.978;2023-11-19T03:37:54;0.73;;;0.73;;
45940;SDS011;31858;46.008;8.978;2023-11-19T03:47:56;0.95;;;0.60;;
45940;SDS011;31858;46.008;8.978;2023-11-19T03:57:59;0.80;;;0.80;;
45940;SDS011;31858;46.008;8.978;2023-11-19T04:08:00;1.05;;;0.90;;
45940;SDS011;31858;46.008;8.978;2023-11-19T04:18:03;0.88;;;0.82;;
45940;SDS011;31858;46.008;8.978;2023-11-19T04:28:05;0.98;;;0.63;;
45940;SDS011;31858;46.008;8.978;2023-11-19T04:38:08;1.80;;;0.90;;
45940;SDS011;31858;46.008;8.978;2023-11-19T04:48:11;1.27;;;0.65;;
45940;SDS011;31858;46.008;8.978;2023-11-19T04:58:14;1.63;;;0.95;;
45940;SDS011;31858;46.008;8.978;2023-11-19T05:08:15;0.77;;;0.63;;
45940;SDS011;31858;46.008;8.978;2023-11-19T05:18:18;0.82;;;0.82;;
45940;SDS011;31858;46.008;8.978;2023-11-19T05:28:21;1.67;;;1.10;;
45940;SDS011;31858;46.008;8.978;2023-11-19T05:38:26;1.33;;;0.95;;
45940;SDS011;31858;46.008;8.978;2023-11-19T05:48:29;1.05;;;0.90;;
45940;SDS011;31858;46.008;8.978;2023-11-19T05:58:31;0.82;;;0.82;;
45940;SDS011;31858;46.008;8.978;2023-11-19T06:08:33;0.93;;;0.70;;
45940;SDS011;31858;46.008;8.978;2023-11-19T06:18:37;0.70;;;0.68;;
45940;SDS011;31858;46.008;8.978;2023-11-19T06:28:38;1.08;;;0.73;;
45940;SDS011;31858;46.008;8.978;2023-11-19T06:38:41;1.10;;;0.80;;
45940;SDS011;31858;46.008;8.978;2023-11-19T06:48:43;0.95;;;0.85;;
45940;SDS011;31858;46.008;8.978;2023-11-19T06:58:46;1.10;;;1.00;;
45940;SDS011;31858;46.008;8.978;2023-11-19T07:08:48;2.17;;;0.88;;
45940;SDS011;31858;46.008;8.978;2023-11-19T07:18:51;2.33;;;0.90;;
45940;SDS011;31858;46.008;8.978;2023-11-19T07:28:53;2.50;;;0.80;;
45940;SDS011;31858;46.008;8.978;2023-11-19T07:38:57;2.80;;;0.90;;
45940;SDS011;31858;46.008;8.978;2023-11-19T07:48:58;2.45;;;1.02;;
45940;SDS011;31858;46.008;8.978;2023-11-19T07:59:01;0.90;;;0.70;;
45940;SDS011;31858;46.008;8.978;2023-11-19T08:09:03;2.72;;;0.90;;
45940;SDS011;31858;46.008;8.978;2023-11-19T08:19:06;1.02;;;0.90;;
45940;SDS011;31858;46.008;8.978;2023-11-19T08:29:08;0.60;;;0.60;;
45940;SDS011;31858;46.008;8.978;2023-11-19T08:39:11;0.90;;;0.80;;
45940;SDS011;31858;46.008;8.978;2023-11-19T08:49:14;2.22;;;0.60;;
45940;SDS011;31858;46.008;8.978;2023-11-19T08:59:16;3.33;;;1.60;;
45940;SDS011;31858;46.008;8.978;2023-11-19T09:09:19;1.25;;;1.15;;
45940;SDS011;31858;46.008;8.978;2023-11-19T09:19:22;5.03;;;1.67;;
45940;SDS011;31858;46.008;8.978;2023-11-19T09:29:23;1.63;;;0.90;;
45940;SDS011;31858;46.008;8.978;2023-11-19T09:39:26;1.10;;;1.00;;
45940;SDS011;31858;46.008;8.978;2023-11-19T09:49:28;0.80;;;0.73;;
45940;SDS011;31858;46.008;8.978;2023-11-19T09:59:31;1.58;;;1.40;;
45940;SDS011;31858;46.008;8.978;2023-11-19T10:09:34;11.15;;;8.35;;
45940;SDS011;31858;46.008;8.978;2023-11-19T10:19:37;4.43;;;3.40;;
45940;SDS011;31858;46.008;8.978;2023-11-19T10:29:43;4.03;;;2.28;;
45940;SDS011;31858;46.008;8.978;2023-11-19T10:39:53;1.88;;;1.65;;
45940;SDS011;31858;46.008;8.978;2023-11-19T10:49:55;1.13;;;0.65;;
45940;SDS011;31858;46.008;8.978;2023-11-19T11:00:00;6.03;;;4.18;;
45940;SDS011;31858;46.008;8.978;2023-11-19T11:10:04;1.65;;;1.50;;
45940;SDS011;31858;46.008;8.978;2023-11-19T11:20:10;2.55;;;1.95;;
45940;SDS011;31858;46.008;8.978;2023-11-19T11:30:15;1.73;;;1.63;;
45940;SDS011;31858;46.008;8.978;2023-11-19T11:40:31;2.13;;;1.20;;
45940;SDS011;31858;46.008;8.978;2023-11-19T11:50:32;2.30;;;1.10;;
45940;SDS011;31858;46.008;8.978;2023-11-19T12:00:38;1.73;;;1.30;;
45940;SDS011;31858;46.008;8.978;2023-11-19T12:10:43;2.55;;;1.40;;
45940;SDS011;31858;46.008;8.978;2023-11-19T12:20:48;1.25;;;1.15;;
45940;SDS011;31858;46.008;8.978;2023-11-19T12:30:50;1.83;;;1.40;;
45940;SDS011;31858;46.008;8.978;2023-11-19T12:41:06;1.80;;;1.17;;
45940;SDS011;31858;46.008;8.978;2023-11-19T12:51:10;1.33;;;1.23;;
45940;SDS011;31858;46.008;8.978;2023-11-19T13:01:15;1.50;;;1.40;;
45940;SDS011;31858;46.008;8.978;2023-11-19T13:11:29;1.67;;;1.58;;
45940;SDS011;31858;46.008;8.978;2023-11-19T13:21:32;1.25;;;1.15;;
45940;SDS011;31858;46.008;8.978;2023-11-19T13:31:34;1.65;;;1.55;;
45940;SDS011;31858;46.008;8.978;2023-11-19T13:41:37;2.30;;;1.80;;
45940;SDS011;31858;46.008;8.978;2023-11-19T13:51:38;1.50;;;1.40;;
45940;SDS011;31858;46.008;8.978;2023-11-19T14:01:41;1.65;;;1.40;;
45940;SDS011;31858;46.008;8.978;2023-11-19T14:11:43;1.58;;;1.30;;
45940;SDS011;31858;46.008;8.978;2023-11-19T14:21:46;2.97;;;1.08;;
45940;SDS011;31858;46.008;8.978;2023-11-19T14:31:47;1.95;;;1.40;;
45940;SDS011;31858;46.008;8.978;2023-11-19T14:41:50;2.50;;;1.60;;
45940;SDS011;31858;46.008;8.978;2023-11-19T14:51:53;1.98;;;1.60;;
45940;SDS011;31858;46.008;8.978;2023-11-19T15:01:56;1.55;;;1.45;;
45940;SDS011;31858;46.008;8.978;2023-11-19T15:11:58;1.20;;;1.10;;
45940;SDS011;31858;46.008;8.978;2023-11-19T15:22:01;2.08;;;1.85;;
45940;SDS011;31858;46.008;8.978;2023-11-19T15:32:05;2.63;;;1.52;;
45940;SDS011;31858;46.008;8.978;2023-11-19T15:42:09;1.98;;;1.42;;
45940;SDS011;31858;46.008;8.978;2023-11-19T15:52:11;2.13;;;1.33;;
45940;SDS011;31858;46.008;8.978;2023-11-19T16:02:15;1.98;;;1.50;;
45940;SDS011;31858;46.008;8.978;2023-11-19T16:12:17;3.75;;;2.22;;
45940;SDS011;31858;46.008;8.978;2023-11-19T16:22:20;2.13;;;1.90;;
45940;SDS011;31858;46.008;8.978;2023-11-19T16:32:21;3.00;;;1.85;;
45940;SDS011;31858;46.008;8.978;2023-11-19T16:42:24;3.22;;;2.40;;
45940;SDS011;31858;46.008;8.978;2023-11-19T16:52:26;5.50;;;2.85;;
45940;SDS011;31858;46.008;8.978;2023-11-19T17:02:29;3.42;;;2.70;;
45940;SDS011;31858;46.008;8.978;2023-11-19T17:12:31;3.80;;;2.58;;
45940;SDS011;31858;46.008;8.978;2023-11-19T17:22:35;3.25;;;2.47;;
45940;SDS011;31858;46.008;8.978;2023-11-19T17:32:38;3.97;;;2.47;;
45940;SDS011;31858;46.008;8.978;2023-11-19T17:42:41;3.72;;;3.00;;
45940;SDS011;31858;46.008;8.978;2023-11-19T17:52:43;3.88;;;3.25;;
45940;SDS011;31858;46.008;8.978;2023-11-19T18:02:46;4.63;;;3.13;;
45940;SDS011;31858;46.008;8.978;2023-11-19T18:12:50;3.47;;;2.85;;
45940;SDS011;31858;46.008;8.978;2023-11-19T18:22:53;6.75;;;3.58;;
45940;SDS011;31858;46.008;8.978;2023-11-19T18:32:55;4.22;;;3.25;;
45940;SDS011;31858;46.008;8.978;2023-11-19T18:42:58;4.85;;;3.20;;
45940;SDS011;31858;46.008;8.978;2023-11-19T18:52:59;5.63;;;3.70;;
45940;SDS011;31858;46.008;8.978;2023-11-19T19:03:02;7.13;;;3.42;;
45940;SDS011;31858;46.008;8.978;2023-11-19T19:13:04;5.43;;;3.90;;
45940;SDS011;31858;46.008;8.978;2023-11-19T19:23:09;7.13;;;4.50;;
45940;SDS011;31858;46.008;8.978;2023-11-19T19:33:11;4.82;;;3.38;;
45940;SDS011;31858;46.008;8.978;2023-11-19T19:43:14;3.55;;;2.47;;
45940;SDS011;31858;46.008;8.978;2023-11-19T19:53:15;2.58;;;2.33;;
45940;SDS011;31858;46.008;8.978;2023-11-19T20:03:18;2.95;;;2.28;;
45940;SDS011;31858;46.008;8.978;2023-11-19T20:13:20;3.22;;;2.40;;
45940;SDS011;31858;46.008;8.978;2023-11-19T20:23:24;3.20;;;2.60;;
45940;SDS011;31858;46.008;8.978;2023-11-19T20:33:25;2.67;;;2.10;;
45940;SDS011;31858;46.008;8.978;2023-11-19T20:43:28;3.72;;;2.72;;
45940;SDS011;31858;46.008;8.978;2023-11-19T20:53:30;3.40;;;2.60;;
45940;SDS011;31858;46.008;8.978;2023-11-19T21:03:33;3.13;;;2.33;;
45940;SDS011;31858;46.008;8.978;2023-11-19T21:13:36;2.95;;;2.20;;
45940;SDS011;31858;46.008;8.978;2023-11-19T21:23:40;2.83;;;2.33;;
45940;SDS011;31858;46.008;8.978;2023-11-19T21:33:41;4.28;;;3.20;;
45940;SDS011;31858;46.008;8.978;2023-11-19T21:43:44;4.10;;;3.47;;
45940;SDS011;31858;46.008;8.978;2023-11-19T21:53:46;4.28;;;3.30;;
45940;SDS011;31858;46.008;8.978;2023-11-19T22:03:49;4.13;;;3.28;;
45940;SDS011;31858;46.008;8.978;2023-11-19T22:13:50;6.28;;;2.97;;
45940;SDS011;31858;46.008;8.978;2023-11-19T22:23:53;3.95;;;2.80;;
45940;SDS011;31858;46.008;8.978;2023-11-19T22:33:55;3.75;;;2.70;;
45940;SDS011;31858;46.008;8.978;2023-11-19T22:43:58;4.63;;;2.85;;
45940;SDS011;31858;46.008;8.978;2023-11-19T22:53:59;3.55;;;2.72;;
45940;SDS011;31858;46.008;8.978;2023-11-19T23:04:02;3.67;;;2.50;;
45940;SDS011;31858;46.008;8.978;2023-11-19T23:14:04;4.05;;;2.40;;
45940;SDS011;31858;46.008;8.978;2023-11-19T23:24:07;2.85;;;2.45;;
45940;SDS011;31858;46.008;8.978;2023-11-19T23:34:09;3.15;;;2.58;;
45940;SDS011;31858;46.008;8.978;2023-11-19T23:44:12;3.70;;;2.45;;
45940;SDS011;31858;46.008;8.978;2023-11-19T23:54:13;3.58;;;2.70;;
